Time;durP1;ratioP1;P1;durP2;ratioP2;P2;SDS_P1;SDS_P2;PMS_P1;PMS_P2;Temp;Humidity;BMP_temperature;BMP_pressure;BME280_temperature;BME280_humidity;BME280_pressure;Samples;Min_cycle;Max_cycle;Signal;HPM_P1;HPM_P2
2021/03/03 00:01:38;;;;;;;6.22;4.16;;;;;;;2.45;75.35;100691.28;2013882;77;20334;-73
2021/03/03 00:04:40;;;;;;;5.29;3.86;;;;;;;2.41;75.07;100695.38;2015436;80;20313;-73
2021/03/03 00:07:41;;;;;;;8.35;4.19;;;;;;;2.41;74.77;100685.13;2015389;80;20329;-73
2021/03/03 00:10:43;;;;;;;8.45;4.47;;;;;;;2.42;74.59;100686.88;2015559;80;20376;-72
2021/03/03 00:13:45;;;;;;;9.30;4.34;;;;;;;2.42;74.69;100686.88;2014994;80;20317;-72
2021/03/03 00:16:47;;;;;;;6.22;3.60;;;;;;;2.39;74.64;100686.75;2014120;77;21637;-72
2021/03/03 00:19:49;;;;;;;8.60;4.21;;;;;;;2.38;75.04;100682.41;2015542;80;20400;-72
2021/03/03 00:22:50;;;;;;;6.45;3.91;;;;;;;2.37;75.21;100692.59;2015448;80;20322;-72
2021/03/03 00:25:52;;;;;;;7.01;4.32;;;;;;;2.34;75.24;100684.78;2016595;80;20337;-71
2021/03/03 00:28:55;;;;;;;7.18;4.03;;;;;;;2.34;75.11;100683.09;2016447;80;20321;-71
2021/03/03 00:31:56;;;;;;;6.59;3.80;;;;;;;2.33;75.43;100680.41;2017282;77;21276;-71
2021/03/03 00:34:58;;;;;;;6.94;3.51;;;;;;;2.30;75.13;100680.28;2077073;69;20795;-68
2021/03/03 00:38:00;;;;;;;9.75;4.28;;;;;;;2.26;74.67;100674.13;2027235;79;20299;-68
2021/03/03 00:41:02;;;;;;;8.59;3.81;;;;;;;2.25;74.26;100674.06;2027344;79;20699;-68
2021/03/03 00:44:04;;;;;;;5.28;3.61;;;;;;;2.24;74.08;100683.41;2027114;79;20319;-68
2021/03/03 00:47:05;;;;;;;7.68;4.22;;;;;;;2.23;74.24;100680.78;2026293;77;21333;-69
2021/03/03 00:50:08;;;;;;;5.86;3.97;;;;;;;2.15;74.69;100682.06;2027115;79;20457;-68
2021/03/03 00:53:10;;;;;;;7.13;3.76;;;;;;;2.12;75.17;100688.81;2027857;79;20392;-68
2021/03/03 00:56:12;;;;;;;6.10;4.28;;;;;;;2.11;75.89;100688.72;2027425;79;20314;-68
2021/03/03 00:59:14;;;;;;;7.44;3.96;;;;;;;2.09;75.60;100688.66;2027200;79;20350;-68
2021/03/03 01:02:17;;;;;;;7.15;4.11;;;;;;;2.11;75.47;100701.53;2026720;77;21721;-68
2021/03/03 01:05:19;;;;;;;9.46;4.29;;;;;;;2.08;75.52;100699.72;2027478;79;20408;-68
2021/03/03 01:08:20;;;;;;;7.38;4.16;;;;;;;2.08;75.41;100699.72;2026940;79;20350;-68
2021/03/03 01:11:22;;;;;;;8.54;4.44;;;;;;;2.08;75.44;100693.69;2026574;79;20323;-68
2021/03/03 01:14:24;;;;;;;7.64;4.28;;;;;;;2.06;75.42;100692.75;2026987;79;20307;-68
2021/03/03 01:17:26;;;;;;;7.60;4.40;;;;;;;2.07;75.41;100690.25;2026353;77;23195;-68
2021/03/03 01:20:30;;;;;;;7.55;4.39;;;;;;;2.02;75.93;100694.28;2027370;79;20299;-68
2021/03/03 01:23:32;;;;;;;6.32;4.19;;;;;;;2.00;76.17;100690.78;2027033;79;20716;-68
2021/03/03 01:26:34;;;;;;;8.57;4.49;;;;;;;1.98;76.38;100688.94;2026655;79;20318;-68
2021/03/03 01:29:35;;;;;;;8.10;4.69;;;;;;;1.94;76.11;100687.88;2026790;79;20351;-68
2021/03/03 01:32:37;;;;;;;8.07;4.68;;;;;;;1.93;76.04;100688.69;2026435;77;20757;-68
2021/03/03 01:35:39;;;;;;;5.63;4.44;;;;;;;1.90;76.06;100691.09;2026705;79;20315;-68
2021/03/03 01:38:40;;;;;;;8.10;4.80;;;;;;;1.90;76.09;100683.41;2026948;79;20943;-68
2021/03/03 01:41:42;;;;;;;8.16;4.64;;;;;;;1.92;76.02;100675.81;2026618;79;20365;-68
2021/03/03 01:44:43;;;;;;;11.84;5.24;;;;;;;1.95;76.37;100676.81;2026759;79;20327;-68
2021/03/03 01:47:46;;;;;;;7.41;4.35;;;;;;;1.92;76.94;100675.81;2026155;77;21457;-68
2021/03/03 01:50:48;;;;;;;8.95;4.45;;;;;;;1.86;76.79;100670.38;2026744;79;20339;-68
2021/03/03 01:53:53;;;;;;;9.43;4.50;;;;;;;1.85;76.75;100682.31;2027193;79;20374;-68
2021/03/03 01:56:55;;;;;;;8.13;4.46;;;;;;;1.88;76.84;100685.00;2027229;79;20388;-68
2021/03/03 01:59:58;;;;;;;8.30;4.76;;;;;;;1.86;77.43;100676.38;2030269;79;20704;-65
2021/03/03 02:02:59;;;;;;;11.27;5.01;;;;;;;1.86;77.67;100678.06;2025778;78;24939;-65
2021/03/03 02:06:11;;;;;;;10.19;5.15;;;;;;;1.85;77.26;100668.63;2026338;79;20399;-66
2021/03/03 02:09:20;;;;;;;11.46;5.10;;;;;;;1.85;77.35;100664.38;2026709;79;20315;-66
2021/03/03 02:12:29;;;;;;;8.22;4.40;;;;;;;1.83;77.31;100655.75;2026492;79;20328;-66
2021/03/03 02:15:32;;;;;;;10.60;4.74;;;;;;;1.81;77.18;100655.66;2026281;77;21172;-66
2021/03/03 02:18:36;;;;;;;8.36;5.00;;;;;;;1.77;77.07;100660.53;2027441;79;20322;-66
2021/03/03 02:21:44;;;;;;;8.27;4.35;;;;;;;1.76;77.25;100656.22;2027662;79;20315;-66
2021/03/03 02:24:57;;;;;;;8.19;4.45;;;;;;;1.77;77.25;100652.84;2026568;79;20437;-66
2021/03/03 02:28:02;;;;;;;6.70;4.30;;;;;;;1.75;77.62;100646.78;2026150;79;20338;-66
2021/03/03 02:31:05;;;;;;;9.24;4.94;;;;;;;1.75;77.32;100645.09;2025973;77;20360;-66
2021/03/03 02:34:08;;;;;;;8.80;4.64;;;;;;;1.78;77.26;100647.81;2027288;79;20825;-66
2021/03/03 02:37:13;;;;;;;7.07;4.31;;;;;;;1.79;77.85;100647.00;2026403;79;20856;-66
2021/03/03 02:40:15;;;;;;;8.14;4.35;;;;;;;1.78;77.68;100635.00;2026893;79;20307;-66
2021/03/03 02:43:18;;;;;;;7.43;4.40;;;;;;;1.75;77.71;100641.66;2026482;79;20310;-66
2021/03/03 02:46:20;;;;;;;11.52;4.84;;;;;;;1.70;77.82;100655.91;2025671;77;20891;-66
2021/03/03 02:49:22;;;;;;;8.65;5.15;;;;;;;1.69;78.12;100644.78;2027228;79;20429;-66
2021/03/03 02:52:24;;;;;;;9.90;4.74;;;;;;;1.70;78.18;100645.66;2026582;80;20378;-66
2021/03/03 02:55:27;;;;;;;13.89;5.28;;;;;;;1.71;78.08;100647.44;2027198;79;20323;-66
2021/03/03 02:58:29;;;;;;;8.11;4.68;;;;;;;1.71;78.05;100632.06;2026064;80;20719;-66
2021/03/03 03:01:31;;;;;;;6.60;4.51;;;;;;;1.70;78.15;100638.88;2026115;77;24567;-66
2021/03/03 03:04:39;;;;;;;9.10;4.43;;;;;;;1.68;78.19;100634.47;2028515;80;20654;-66
2021/03/03 03:07:47;;;;;;;10.89;4.45;;;;;;;1.68;78.06;100635.34;2028015;79;20868;-66
2021/03/03 03:10:50;;;;;;;7.97;4.18;;;;;;;1.70;78.37;100635.44;2028165;80;20366;-67
2021/03/03 03:13:54;;;;;;;7.69;4.55;;;;;;;1.65;78.61;100630.09;2028242;80;20350;-67
2021/03/03 03:16:59;;;;;;;6.99;4.56;;;;;;;1.68;78.64;100637.91;2027040;77;21809;-66
2021/03/03 03:20:03;;;;;;;7.55;4.64;;;;;;;1.65;78.98;100635.22;2028058;80;20800;-66
2021/03/03 03:23:06;;;;;;;6.22;4.50;;;;;;;1.63;79.10;100634.25;2027929;80;20318;-66
2021/03/03 03:26:09;;;;;;;10.65;4.80;;;;;;;1.63;78.75;100628.25;2028122;80;20400;-66
2021/03/03 03:29:11;;;;;;;11.24;4.50;;;;;;;1.64;78.83;100630.00;2027791;80;20314;-66
2021/03/03 03:32:12;;;;;;;8.59;5.47;;;;;;;1.64;78.85;100623.22;2026998;76;20362;-66
2021/03/03 03:35:15;;;;;;;7.96;4.74;;;;;;;1.64;78.51;100624.91;2027641;80;20500;-66
2021/03/03 03:38:17;;;;;;;10.68;5.24;;;;;;;1.60;78.37;100634.06;2028496;80;20881;-66
2021/03/03 03:41:20;;;;;;;9.29;4.95;;;;;;;1.60;78.57;100644.31;2027722;80;20315;-66
2021/03/03 03:44:24;;;;;;;10.06;4.94;;;;;;;1.60;78.69;100640.88;2027689;79;20340;-66
2021/03/03 03:47:26;;;;;;;11.24;5.50;;;;;;;1.60;78.56;100639.19;2026627;77;20799;-68
2021/03/03 03:50:28;;;;;;;8.46;4.60;;;;;;;1.61;78.56;100648.63;2027542;80;20322;-68
2021/03/03 03:53:31;;;;;;;7.32;4.49;;;;;;;1.58;78.47;100640.78;2027945;80;20307;-68
2021/03/03 03:56:34;;;;;;;8.70;5.07;;;;;;;1.59;78.69;100650.22;2027651;79;20999;-67
2021/03/03 03:59:36;;;;;;;8.77;5.26;;;;;;;1.57;78.77;100641.59;2028288;79;20400;-68
2021/03/03 04:02:37;;;;;;;9.55;4.51;;;;;;;1.59;78.52;100634.00;2026078;77;23296;-67
2021/03/03 04:05:39;;;;;;;10.01;5.06;;;;;;;1.61;78.50;100637.50;2027566;79;20303;-67
2021/03/03 04:08:41;;;;;;;8.91;4.50;;;;;;;1.64;78.57;100647.94;2027889;79;20376;-66
2021/03/03 04:11:42;;;;;;;8.06;4.60;;;;;;;1.63;78.68;100634.25;2027268;79;20358;-67
2021/03/03 04:14:44;;;;;;;9.55;4.93;;;;;;;1.66;78.59;100646.31;2027645;79;20731;-66
2021/03/03 04:17:46;;;;;;;11.02;5.04;;;;;;;1.67;78.85;100643.84;2026002;77;20319;-67
2021/03/03 04:20:48;;;;;;;7.53;5.04;;;;;;;1.70;78.87;100655.91;2027932;79;21451;-66
2021/03/03 04:23:50;;;;;;;9.31;5.43;;;;;;;1.67;79.06;100654.09;2027218;79;20315;-66
2021/03/03 04:26:52;;;;;;;10.66;5.82;;;;;;;1.67;79.01;100646.41;2027548;79;20322;-66
2021/03/03 04:29:53;;;;;;;8.75;5.15;;;;;;;1.67;78.98;100641.28;2027035;79;20339;-67
2021/03/03 04:32:55;;;;;;;8.45;4.93;;;;;;;1.66;78.82;100646.31;2026994;77;20335;-66
2021/03/03 04:35:57;;;;;;;8.55;5.05;;;;;;;1.68;78.93;100649.84;2027136;79;20993;-67
2021/03/03 04:38:58;;;;;;;9.11;4.90;;;;;;;1.71;79.06;100639.75;2027079;79;20311;-66
2021/03/03 04:42:02;;;;;;;6.53;4.25;;;;;;;1.72;78.73;100652.63;2027925;79;20335;-66
2021/03/03 04:45:06;;;;;;;7.84;4.96;;;;;;;1.73;78.67;100650.94;2026732;79;20311;-66
2021/03/03 04:48:09;;;;;;;6.82;4.85;;;;;;;1.73;78.58;100649.25;2027176;77;22619;-66
2021/03/03 04:51:11;;;;;;;6.90;5.07;;;;;;;1.74;78.46;100650.13;2026948;79;20358;-66
2021/03/03 04:54:12;;;;;;;7.70;4.88;;;;;;;1.70;78.79;100636.31;2028308;79;20346;-66
2021/03/03 04:57:14;;;;;;;5.90;4.61;;;;;;;1.71;79.09;100650.00;2027116;79;20315;-66
2021/03/03 05:00:16;;;;;;;8.49;4.93;;;;;;;1.69;79.32;100644.78;2026122;78;20795;-66
2021/03/03 05:03:18;;;;;;;8.74;4.82;;;;;;;1.68;79.50;100643.03;2027291;79;20327;-66
2021/03/03 05:06:20;;;;;;;6.70;4.85;;;;;;;1.64;79.37;100633.44;2026662;79;20334;-66
2021/03/03 05:09:22;;;;;;;8.60;4.94;;;;;;;1.62;79.12;100640.19;2027491;79;20355;-66
2021/03/03 05:12:23;;;;;;;7.66;4.97;;;;;;;1.63;78.92;100641.06;2027254;79;21043;-66
2021/03/03 05:15:25;;;;;;;12.13;5.46;;;;;;;1.56;79.17;100636.41;2026432;77;20326;-66
2021/03/03 05:18:27;;;;;;;8.74;5.10;;;;;;;1.55;79.25;100625.28;2026713;79;20827;-66
2021/03/03 05:21:29;;;;;;;8.48;5.65;;;;;;;1.50;79.41;100621.63;2027069;79;20310;-66
2021/03/03 05:24:31;;;;;;;11.38;5.38;;;;;;;1.46;79.52;100624.81;2027457;79;20356;-66
2021/03/03 05:27:32;;;;;;;7.96;5.65;;;;;;;1.45;79.50;100625.63;2026666;79;20339;-66
2021/03/03 05:30:34;;;;;;;6.64;5.26;;;;;;;1.41;79.59;100626.25;2026308;77;20708;-66
2021/03/03 05:33:36;;;;;;;8.31;5.07;;;;;;;1.40;79.60;100617.69;2026803;79;21056;-66
2021/03/03 05:36:37;;;;;;;10.26;5.20;;;;;;;1.39;79.80;100621.06;2027167;79;20351;-66
2021/03/03 05:39:39;;;;;;;11.61;5.36;;;;;;;1.36;79.75;100617.47;2026514;79;20479;-66
2021/03/03 05:42:41;;;;;;;7.85;4.78;;;;;;;1.34;79.84;100625.06;2026676;79;20367;-72
2021/03/03 05:45:44;;;;;;;6.49;4.70;;;;;;;1.32;79.88;100618.13;2026373;77;21016;-68
2021/03/03 05:48:55;;;;;;;8.26;4.36;;;;;;;1.31;79.96;100618.91;2027010;79;20396;-68
2021/03/03 05:51:57;;;;;;;8.74;5.50;;;;;;;1.28;80.02;100618.75;2026736;79;20360;-66
2021/03/03 05:55:02;;;;;;;9.13;4.95;;;;;;;1.28;79.91;100621.31;2027272;79;20326;-66
2021/03/03 05:58:04;;;;;;;13.11;5.49;;;;;;;1.26;79.87;100617.78;2026862;79;20315;-66
2021/03/03 06:01:07;;;;;;;13.76;6.51;;;;;;;1.19;79.82;100621.69;2026205;77;20779;-67
2021/03/03 06:04:09;;;;;;;9.45;6.04;;;;;;;1.18;80.07;100618.25;2027534;79;20390;-67
2021/03/03 06:07:12;;;;;;;9.63;5.95;;;;;;;1.18;80.05;100615.69;2026647;79;20322;-67
2021/03/03 06:10:14;;;;;;;10.14;5.91;;;;;;;1.18;79.82;100620.81;2027259;79;20338;-66
2021/03/03 06:13:17;;;;;;;11.16;5.68;;;;;;;1.15;79.74;100630.91;2027357;79;20352;-67
2021/03/03 06:16:20;;;;;;;8.94;5.57;;;;;;;1.14;79.49;100628.25;2026085;78;23491;-67
2021/03/03 06:19:21;;;;;;;9.20;5.57;;;;;;;1.15;79.41;100623.22;2026790;79;20338;-67
2021/03/03 06:22:25;;;;;;;9.01;5.40;;;;;;;1.18;79.38;100628.50;2026119;79;20342;-69
2021/03/03 06:25:27;;;;;;;6.56;5.24;;;;;;;1.18;79.35;100633.59;2025354;79;21293;-69
2021/03/03 06:28:42;;;;;;;8.86;6.00;;;;;;;1.13;79.43;100629.06;2025256;79;20827;-66
2021/03/03 06:31:43;;;;;;;10.76;6.99;;;;;;;1.15;79.49;100633.44;2019698;77;20318;-66
2021/03/03 06:34:50;;;;;;;9.24;5.54;;;;;;;1.16;79.43;100635.22;2026191;79;20311;-66
2021/03/03 06:37:53;;;;;;;10.10;5.80;;;;;;;1.18;79.19;100635.28;2026994;79;20315;-66
2021/03/03 06:41:06;;;;;;;9.29;5.51;;;;;;;1.17;79.34;100636.09;2026882;79;20429;-67
2021/03/03 06:44:08;;;;;;;11.96;6.54;;;;;;;1.18;79.22;100638.72;2023326;79;20344;-66
2021/03/03 06:47:09;;;;;;;9.70;5.21;;;;;;;1.19;79.84;100631.94;2026077;77;21014;-66
2021/03/03 06:50:12;;;;;;;9.24;5.39;;;;;;;1.18;80.02;100638.72;2026576;79;20459;-66
2021/03/03 06:53:30;;;;;;;16.01;5.54;;;;;;;1.16;80.21;100630.09;2026308;79;20306;-66
2021/03/03 06:56:38;;;;;;;9.95;5.34;;;;;;;1.21;80.25;100641.44;2025758;80;20349;-80
2021/03/03 06:59:44;;;;;;;9.46;5.79;;;;;;;1.26;80.36;100643.34;2026480;79;20306;-68
2021/03/03 07:02:46;;;;;;;8.64;5.35;;;;;;;1.28;80.57;100641.78;2026128;77;26438;-69
2021/03/03 07:05:48;;;;;;;10.54;5.47;;;;;;;1.30;80.87;100645.28;2027500;79;20307;-68
2021/03/03 07:08:59;;;;;;;7.82;5.30;;;;;;;1.37;81.03;100647.38;2026664;80;20298;-68
2021/03/03 07:12:02;;;;;;;9.49;5.53;;;;;;;1.41;80.85;100651.84;2027034;79;20921;-68
2021/03/03 07:15:09;;;;;;;7.65;6.04;;;;;;;1.47;80.84;100647.06;2025904;80;20380;-68
2021/03/03 07:18:31;;;;;;;7.35;5.45;;;;;;;1.51;80.93;100647.28;2027119;77;29578;-68
2021/03/03 07:21:37;;;;;;;8.96;6.05;;;;;;;1.60;81.06;100646.00;2026433;80;20801;-68
2021/03/03 07:24:39;;;;;;;8.05;5.68;;;;;;;1.67;80.87;100643.84;2026429;80;20354;-68
2021/03/03 07:27:43;;;;;;;8.51;4.99;;;;;;;1.72;80.89;100639.81;2024127;80;20323;-69
2021/03/03 07:30:45;;;;;;;19.20;10.06;;;;;;;1.74;80.79;100643.34;2024878;77;20904;-70
2021/03/03 07:33:48;;;;;;;25.08;13.98;;;;;;;1.75;80.77;100642.53;2026069;79;20425;-69
2021/03/03 07:36:53;;;;;;;16.24;8.38;;;;;;;1.79;80.92;100643.56;2029323;79;20318;-68
2021/03/03 07:39:57;;;;;;;15.25;7.71;;;;;;;1.78;81.12;100645.25;2026266;79;20452;-68
2021/03/03 07:43:01;;;;;;;15.61;8.71;;;;;;;1.88;81.07;100643.16;2027342;79;20324;-67
2021/03/03 07:46:07;;;;;;;11.63;7.31;;;;;;;1.89;81.17;100648.34;2026762;77;20367;-70
2021/03/03 07:49:12;;;;;;;8.88;6.47;;;;;;;1.96;81.25;100652.97;2027922;79;20331;-68
2021/03/03 07:52:14;;;;;;;11.76;6.44;;;;;;;2.03;81.21;100651.63;2027495;79;20355;-68
2021/03/03 07:55:16;;;;;;;11.21;5.97;;;;;;;2.13;80.98;100646.13;2026913;79;20323;-67
2021/03/03 07:58:21;;;;;;;11.85;6.16;;;;;;;2.23;80.90;100648.34;2028627;79;20302;-70
2021/03/03 08:01:24;;;;;;;12.27;7.03;;;;;;;2.46;80.54;100652.03;2026586;77;21047;-70
2021/03/03 08:04:40;;;;;;;11.90;7.51;;;;;;;2.76;80.38;100650.03;2027122;79;20332;-68
2021/03/03 08:07:42;;;;;;;11.57;7.96;;;;;;;3.12;79.73;100644.84;2027037;79;20448;-67
2021/03/03 08:10:47;;;;;;;10.86;7.94;;;;;;;3.50;78.88;100649.13;2027431;79;20314;-68
2021/03/03 08:13:50;;;;;;;13.06;7.84;;;;;;;3.79;77.66;100650.41;2028021;79;20330;-68
2021/03/03 08:16:53;;;;;;;11.89;8.09;;;;;;;4.13;76.84;100655.25;2026270;77;21078;-68
2021/03/03 08:19:58;;;;;;;12.32;7.85;;;;;;;4.40;76.16;100650.38;2027854;79;21128;-69
2021/03/03 08:23:00;;;;;;;14.07;7.86;;;;;;;4.58;75.54;100648.53;2027446;79;20821;-67
2021/03/03 08:26:04;;;;;;;11.89;8.05;;;;;;;4.66;75.07;100653.97;2027097;79;20358;-68
2021/03/03 08:29:16;;;;;;;16.51;9.21;;;;;;;4.71;74.72;100647.34;2027593;79;20342;-68
2021/03/03 08:32:22;;;;;;;15.93;9.15;;;;;;;4.83;74.42;100642.66;2026555;77;24078;-68
2021/03/03 08:35:38;;;;;;;14.84;8.89;;;;;;;4.95;74.37;100647.41;2026780;79;20326;-69
2021/03/03 08:38:40;;;;;;;13.90;8.80;;;;;;;5.20;74.16;100647.50;2027910;79;20299;-68
2021/03/03 08:41:51;;;;;;;13.48;8.69;;;;;;;5.59;73.55;100642.94;2030638;79;20452;-71
2021/03/03 08:44:59;;;;;;;12.74;8.96;;;;;;;6.04;72.45;100640.22;2027615;79;20895;-71
2021/03/03 08:48:09;;;;;;;13.86;8.90;;;;;;;6.42;71.22;100632.88;2021171;77;20624;-71
2021/03/03 08:51:32;;;;;;;15.44;8.51;;;;;;;6.77;70.09;100641.72;2022056;80;20193;-72
2021/03/03 08:54:43;;;;;;;12.88;8.80;;;;;;;7.12;69.32;100637.63;2019777;80;20328;-72
2021/03/03 08:57:45;;;;;;;13.95;8.40;;;;;;;7.35;68.42;100633.09;2021672;80;20311;-73
2021/03/03 09:00:47;;;;;;;15.74;9.24;;;;;;;7.71;67.71;100633.25;2022837;77;20777;-72
2021/03/03 09:03:53;;;;;;;19.13;9.30;;;;;;;7.95;66.79;100630.47;2026727;79;20322;-72
2021/03/03 09:07:27;;;;;;;15.80;9.96;;;;;;;8.19;65.88;100634.53;2026886;79;20329;-72
2021/03/03 09:10:30;;;;;;;13.02;9.61;;;;;;;8.47;64.55;100638.72;2027791;79;20682;-72
2021/03/03 09:13:36;;;;;;;15.84;9.40;;;;;;;8.73;63.61;100635.88;2027722;79;20211;-72
2021/03/03 09:16:56;;;;;;;13.04;8.84;;;;;;;9.12;63.14;100633.28;2025219;77;21594;-72
2021/03/03 09:20:06;;;;;;;14.32;9.13;;;;;;;9.49;62.50;100624.53;2025259;79;20200;-72
2021/03/03 09:23:08;;;;;;;12.89;9.55;;;;;;;9.85;61.21;100620.88;2025960;79;20197;-72
2021/03/03 09:26:19;;;;;;;16.04;9.35;;;;;;;10.19;60.23;100622.34;2025312;79;21005;-73
2021/03/03 09:29:29;;;;;;;22.08;9.61;;;;;;;10.45;59.03;100621.13;2025459;79;20182;-72
2021/03/03 09:32:31;;;;;;;17.02;10.24;;;;;;;10.71;57.16;100623.22;2023987;77;21414;-72
2021/03/03 09:35:34;;;;;;;15.27;9.68;;;;;;;10.97;56.00;100623.63;2025984;79;20194;-72
2021/03/03 09:38:36;;;;;;;19.59;9.34;;;;;;;11.12;54.14;100629.88;2024461;79;20616;-72
2021/03/03 09:41:37;;;;;;;14.15;9.73;;;;;;;11.20;52.73;100628.25;2024748;79;20198;-73
2021/03/03 09:44:47;;;;;;;16.16;9.07;;;;;;;11.42;52.94;100616.38;2028536;79;20209;-73
2021/03/03 09:47:49;;;;;;;13.74;9.38;;;;;;;11.65;51.98;100610.56;2028259;77;20286;-72
2021/03/03 09:50:51;;;;;;;17.76;9.38;;;;;;;11.93;52.30;100614.38;2030694;79;20215;-73
2021/03/03 09:53:54;;;;;;;12.35;8.57;;;;;;;12.19;51.65;100615.47;2030391;79;20688;-73
2021/03/03 09:57:04;;;;;;;16.16;9.45;;;;;;;12.35;50.34;100604.31;2029491;79;20460;-73
2021/03/03 10:00:09;;;;;;;16.09;8.90;;;;;;;12.50;48.65;100603.56;2029939;79;20177;-73
2021/03/03 10:03:13;;;;;;;16.16;9.04;;;;;;;12.63;48.55;100600.19;2024254;77;21723;-73
2021/03/03 10:06:17;;;;;;;15.64;8.76;;;;;;;12.83;47.94;100597.69;2024927;79;20208;-73
2021/03/03 10:09:20;;;;;;;15.11;8.79;;;;;;;13.01;47.82;100596.94;2025374;79;20944;-76
2021/03/03 10:12:24;;;;;;;17.81;9.75;;;;;;;13.19;47.42;100589.22;2025221;79;20212;-73
2021/03/03 10:15:36;;;;;;;11.77;8.02;;;;;;;13.41;46.37;100592.78;2024846;76;21112;-73
2021/03/03 10:18:39;;;;;;;10.94;6.59;;;;;;;13.55;45.93;100585.00;2030080;79;20202;-73
2021/03/03 10:21:45;;;;;;;13.41;7.75;;;;;;;13.67;44.27;100581.56;2030000;79;20177;-73
2021/03/03 10:25:01;;;;;;;9.79;7.20;;;;;;;13.91;45.03;100578.97;2029286;79;20700;-75
2021/03/03 10:28:06;;;;;;;13.00;7.60;;;;;;;14.14;44.30;100577.25;2029998;79;20238;-73
2021/03/03 10:31:18;;;;;;;11.68;7.05;;;;;;;14.23;42.47;100579.00;2028021;77;21300;-73
2021/03/03 10:34:21;;;;;;;12.05;6.75;;;;;;;14.34;42.00;100573.75;2024583;79;20194;-73
2021/03/03 10:37:27;;;;;;;10.65;6.15;;;;;;;14.58;41.18;100571.16;2025147;79;20196;-73
2021/03/03 10:40:37;;;;;;;11.73;6.29;;;;;;;14.75;39.88;100574.63;2024138;79;20237;-73
2021/03/03 10:43:47;;;;;;;11.50;6.71;;;;;;;14.93;39.82;100570.22;2024551;79;20297;-74
2021/03/03 10:46:49;;;;;;;8.45;6.10;;;;;;;14.92;39.20;100577.19;2026996;77;20275;-72
2021/03/03 10:50:08;;;;;;;12.54;7.13;;;;;;;14.95;39.24;100568.47;2029694;79;20419;-72
2021/03/03 10:53:10;;;;;;;13.99;6.72;;;;;;;14.68;39.71;100572.88;2030150;79;20193;-74
2021/03/03 10:56:23;;;;;;;11.31;6.84;;;;;;;14.59;39.66;100572.03;2029201;79;20207;-74
2021/03/03 10:59:30;;;;;;;10.54;7.36;;;;;;;14.73;39.59;100568.53;2030277;79;20481;-73
2021/03/03 11:02:31;;;;;;;11.21;6.55;;;;;;;14.90;39.33;100568.47;2029182;77;21877;-73
2021/03/03 11:05:33;;;;;;;8.36;6.38;;;;;;;15.15;40.14;100571.00;2030008;79;20213;-73
2021/03/03 11:08:39;;;;;;;10.79;7.51;;;;;;;15.36;39.57;100566.53;2030051;79;20206;-73
2021/03/03 11:11:48;;;;;;;11.59;6.88;;;;;;;15.57;38.32;100567.28;2030312;79;20698;-73
2021/03/03 11:14:49;;;;;;;12.65;7.59;;;;;;;15.80;39.72;100572.41;2030288;79;20182;-74
2021/03/03 11:17:54;;;;;;;14.10;7.72;;;;;;;15.91;38.24;100571.44;2024242;77;20575;-73
2021/03/03 11:20:56;;;;;;;12.26;6.91;;;;;;;16.10;38.68;100563.47;2025118;79;20194;-73
2021/03/03 11:23:58;;;;;;;12.64;7.74;;;;;;;16.30;38.54;100558.91;2025348;79;20235;-71
2021/03/03 11:27:00;;;;;;;13.60;7.38;;;;;;;16.34;36.84;100563.25;2026157;79;20202;-71
2021/03/03 11:30:03;;;;;;;10.31;7.30;;;;;;;16.23;37.36;100552.88;2025748;79;20224;-71
2021/03/03 11:33:05;;;;;;;16.44;8.11;;;;;;;16.07;37.63;100542.53;2030572;79;20865;-71
2021/03/03 11:36:08;;;;;;;11.69;6.57;;;;;;;15.95;37.90;100543.47;2030858;79;20203;-72
2021/03/03 11:39:10;;;;;;;11.95;7.18;;;;;;;15.94;37.59;100552.22;2030724;79;20213;-73
2021/03/03 11:42:12;;;;;;;11.63;7.25;;;;;;;15.90;37.62;100543.53;2031472;79;20165;-73
2021/03/03 11:45:14;;;;;;;11.77;7.65;;;;;;;15.80;37.93;100535.72;2029967;79;20245;-73
2021/03/03 11:48:19;;;;;;;16.99;7.64;;;;;;;15.67;37.34;100530.59;2030321;79;20312;-74
2021/03/03 11:51:21;;;;;;;14.68;7.39;;;;;;;15.63;37.73;100528.91;2030799;79;20177;-73
2021/03/03 11:54:42;;;;;;;17.42;8.10;;;;;;;15.51;37.34;100526.31;2030305;79;20287;-73
2021/03/03 11:57:43;;;;;;;13.66;7.50;;;;;;;15.42;39.09;100518.50;2031825;79;20215;-74
2021/03/03 12:00:45;;;;;;;17.51;7.16;;;;;;;15.39;39.75;100508.94;2028874;77;20194;-73
2021/03/03 12:03:46;;;;;;;15.23;7.68;;;;;;;15.46;39.46;100515.00;2024475;79;20214;-73
2021/03/03 12:06:48;;;;;;;14.20;7.86;;;;;;;15.53;38.66;100507.97;2024803;79;20297;-73
2021/03/03 12:09:50;;;;;;;13.10;7.31;;;;;;;15.69;38.20;100507.91;2025026;79;20178;-73
2021/03/03 12:12:51;;;;;;;11.71;7.35;;;;;;;15.99;38.97;100503.31;2028227;79;20178;-72
2021/03/03 12:15:53;;;;;;;13.51;8.46;;;;;;;16.23;38.69;100502.19;2025870;77;20992;-72
2021/03/03 12:18:55;;;;;;;13.25;7.69;;;;;;;16.26;37.91;100494.31;2030448;79;20211;-70
2021/03/03 12:21:57;;;;;;;14.06;8.15;;;;;;;16.16;37.04;100493.53;2030749;79;20173;-70
2021/03/03 12:25:00;;;;;;;12.38;7.54;;;;;;;16.17;38.09;100490.03;2029780;79;20214;-70
2021/03/03 12:28:02;;;;;;;13.76;7.63;;;;;;;16.33;37.28;100482.84;2030660;79;20664;-71
2021/03/03 12:31:04;;;;;;;14.75;7.61;;;;;;;16.65;37.85;100472.03;2028249;78;26087;-71
2021/03/03 12:34:06;;;;;;;11.07;8.04;;;;;;;16.80;36.50;100466.63;2025608;79;20186;-71
2021/03/03 12:37:08;;;;;;;11.11;7.54;;;;;;;17.01;36.56;100459.38;2025513;79;20174;-71
2021/03/03 12:40:10;;;;;;;13.85;8.29;;;;;;;17.20;36.58;100447.72;2025082;79;20196;-70
2021/03/03 12:43:12;;;;;;;13.50;7.57;;;;;;;17.27;35.21;100438.00;2024886;79;20208;-71
2021/03/03 12:46:13;;;;;;;15.35;7.51;;;;;;;17.28;35.40;100442.38;2025815;77;28547;-71
2021/03/03 12:49:15;;;;;;;15.79;8.55;;;;;;;17.23;35.79;100439.78;2030243;79;20685;-71
2021/03/03 12:52:17;;;;;;;11.68;7.84;;;;;;;17.08;34.62;100438.28;2030531;79;20217;-71
2021/03/03 12:55:19;;;;;;;13.04;7.53;;;;;;;16.88;34.34;100445.56;2030643;79;20288;-70
2021/03/03 12:58:21;;;;;;;11.94;7.80;;;;;;;16.72;35.67;100442.25;2030515;79;20186;-71
2021/03/03 13:01:23;;;;;;;10.44;6.65;;;;;;;16.71;36.62;100437.03;2027368;77;21334;-68
2021/03/03 13:04:24;;;;;;;16.65;8.20;;;;;;;16.76;37.65;100436.09;2026162;79;20378;-70
2021/03/03 13:07:26;;;;;;;10.54;8.06;;;;;;;16.78;37.14;100436.06;2025624;79;20171;-70
2021/03/03 13:10:28;;;;;;;14.43;7.45;;;;;;;16.71;37.86;100430.03;2025653;79;20251;-72
2021/03/03 13:13:30;;;;;;;11.14;7.36;;;;;;;16.90;37.92;100426.28;2026145;79;20888;-71
2021/03/03 13:16:32;;;;;;;13.55;7.88;;;;;;;17.07;36.13;100418.19;2024052;77;59324;-73
2021/03/03 13:19:34;;;;;;;12.19;7.34;;;;;;;17.30;36.27;100412.56;2025089;79;20797;-71
2021/03/03 13:22:37;;;;;;;13.38;7.89;;;;;;;17.27;36.64;100407.38;2024876;79;20192;-71
2021/03/03 13:25:38;;;;;;;11.89;7.61;;;;;;;17.10;37.13;100405.00;2025109;79;20363;-70
2021/03/03 13:28:40;;;;;;;12.01;7.14;;;;;;;16.86;37.18;100405.34;2025299;79;20195;-71
2021/03/03 13:31:42;;;;;;;17.20;7.94;;;;;;;16.74;37.76;100395.03;2027109;77;20211;-71
2021/03/03 13:34:44;;;;;;;10.81;7.72;;;;;;;16.61;38.12;100402.16;2030880;79;20342;-75
2021/03/03 13:37:46;;;;;;;13.41;7.25;;;;;;;16.42;37.50;100408.50;2031498;79;20274;-71
2021/03/03 13:40:50;;;;;;;11.43;7.56;;;;;;;16.36;38.11;100398.97;2032465;79;20178;-71
2021/03/03 13:43:52;;;;;;;12.09;6.93;;;;;;;16.21;38.31;100396.53;2033019;79;20693;-71
2021/03/03 13:46:54;;;;;;;12.49;7.06;;;;;;;16.14;39.79;100395.69;2027944;79;46637;-71
2021/03/03 13:49:56;;;;;;;15.50;7.79;;;;;;;15.97;40.31;100393.25;2026989;79;20276;-72
2021/03/03 13:52:57;;;;;;;11.46;7.75;;;;;;;15.88;40.39;100398.59;2024708;79;20198;-71
2021/03/03 13:55:59;;;;;;;11.19;6.47;;;;;;;15.77;40.54;100397.84;2026389;79;20170;-70
2021/03/03 13:59:02;;;;;;;10.39;6.61;;;;;;;15.74;41.06;100395.25;2025479;79;20202;-70
2021/03/03 14:02:04;;;;;;;11.80;7.25;;;;;;;15.75;41.20;100393.50;2030029;77;20253;-73
2021/03/03 14:05:06;;;;;;;10.04;7.26;;;;;;;15.68;40.77;100392.69;2032178;79;20229;-71
2021/03/03 14:08:08;;;;;;;12.20;7.95;;;;;;;15.67;41.15;100394.44;2032095;79;21169;-71
2021/03/03 14:11:10;;;;;;;11.56;7.40;;;;;;;15.65;40.85;100401.44;2031273;79;20247;-71
2021/03/03 14:14:12;;;;;;;13.10;7.39;;;;;;;15.66;40.60;100399.69;2032124;79;20205;-70
2021/03/03 14:17:14;;;;;;;11.84;6.91;;;;;;;15.74;40.60;100403.09;2027238;77;20405;-70